Flag for Taiwan

Past Weather in 22°58'59.9"N, 120°10'59.9"E, Taiwan — Yesterday and Last 2 Weeks

Currently: 77 °F. Passing clouds. (Weather station: Kaohsiung International Airport, Taiwan). See more current weather

Past Weather in 22°58'59.9"N, 120°10'59.9"E — Graph

°F

22°58'59.9"N, 120°10'59.9"E Temperature Yesterday

Maximum temperature yesterday: 79 °F (at 10:30 am)
Minimum temperature yesterday: 66 °F (at 4:00 am)
Average temperature yesterday: 73 °F

High & Low Weather Summary for the Past Weeks

 TemperatureHumidityPressure
High86 °F (Feb 15, 12:00 pm)94% (Feb 18, 5:00 am)30.18 "Hg (Feb 18, 5:00 am)
Low63 °F (Feb 27, 2:00 am)37% (Feb 15, 10:30 am)29.89 "Hg (Feb 21, 3:00 pm)
Average75 °F67%30.04 "Hg
* Reported Feb 14 8:00 pm — Feb 29 8:00 pm, 22°58'59.9"N, 120°10'59.9"E. Weather by CustomWeather, © 2024

Note: Actual official high and low records may vary slightly from our data, if they occured in-between our weather recording intervals... More about our weather records

22°58'59.9"N, 120°10'59.9"E Weather History for the Previous 24 Hours

Scroll right to see more
 ConditionsComfort  
Time TempWeatherWind HumidityBarometerVisibility
8:00 pm
Thu, Feb 29
77 °FPartly cloudy.7 mph74%30.01 "HgN/A
7:30 pm75 °FPassing clouds.8 mph83%29.98 "HgN/A
7:00 pm77 °FPassing clouds.7 mph79%29.98 "HgN/A
6:30 pm79 °FPassing clouds.6 mph70%29.95 "HgN/A
6:00 pm79 °FPassing clouds.7 mph70%29.95 "HgN/A
5:30 pm81 °FPassing clouds.9 mph62%29.95 "HgN/A
5:00 pm82 °FPassing clouds.10 mph58%29.92 "HgN/A
4:00 pm82 °FPassing clouds.12 mph55%29.92 "HgN/A
3:30 pm84 °FPassing clouds.12 mph51%29.92 "HgN/A
3:00 pm82 °FPassing clouds.14 mph58%29.92 "HgN/A
2:30 pm82 °FPassing clouds.14 mph62%29.92 "HgN/A
2:00 pm82 °FPassing clouds.13 mph62%29.92 "HgN/A
1:30 pm84 °FPassing clouds.12 mph55%29.95 "HgN/A
12:30 pm82 °FPassing clouds.13 mph58%29.98 "HgN/A
12:00 pm84 °FPassing clouds.10 mph51%29.98 "HgN/A
11:30 am82 °FPassing clouds.10 mph55%29.98 "HgN/A
11:00 am81 °FScattered clouds.8 mph58%30.01 "Hg5 mi
10:30 am81 °FScattered clouds.7 mph54%30.01 "Hg4 mi
9:30 am77 °FScattered clouds.6 mph65%30.04 "Hg4 mi
9:00 am75 °FScattered clouds.6 mph69%30.07 "Hg3 mi
8:30 am72 °FBroken clouds.5 mph78%30.07 "Hg3 mi
8:00 am68 °FFog.6 mph83%30.07 "Hg3 mi
7:30 am68 °FFog.3 mph83%30.04 "Hg3 mi
7:15 am68 °FFog.3 mph83%30.04 "Hg3 mi
6:30 am66 °FScattered clouds.2 mph88%30.04 "Hg4 mi
6:00 am66 °FPassing clouds.3 mph88%30.01 "Hg4 mi
5:00 am66 °FPassing clouds.3 mph83%30.01 "Hg4 mi
4:00 am68 °FPassing clouds.2 mph83%30.01 "Hg4 mi
3:00 am68 °FPassing clouds.2 mph83%30.01 "Hg4 mi
2:00 am68 °FPassing clouds.6 mph83%30.04 "Hg4 mi
1:00 am68 °FPassing clouds.8 mph83%30.07 "Hg4 mi
12:00 am70 °FPassing clouds.8 mph78%30.07 "Hg6 mi
11:30 pm
Wed, Feb 28
70 °FPassing clouds.5 mph78%30.07 "Hg6 mi
11:00 pm72 °FPassing clouds.6 mph78%30.07 "HgN/A
10:30 pm72 °FPassing clouds.5 mph78%30.04 "HgN/A
9:30 pm72 °FPassing clouds.5 mph78%30.04 "HgN/A
9:00 pm72 °FPassing clouds.6 mph78%30.04 "HgN/A
Weather by CustomWeather, © 2024

See weather overview